Time;durP1;ratioP1;P1;durP2;ratioP2;P2;SDS_P1;SDS_P2;PMS_P1;PMS_P2;Temp;Humidity;BMP_temperature;BMP_pressure;BME280_temperature;BME280_humidity;BME280_pressure;Samples;Min_cycle;Max_cycle;Signal;HPM_P1;HPM_P2
2022/05/26 00:02:26;;;;;;;1.52;1.10;;;;;;;;;;5038943;28;20219;-71
2022/05/26 00:04:52;;;;;;;2.30;1.00;;;;;;;;;;5037569;28;20214;-71
2022/05/26 00:07:20;;;;;;;3.75;1.30;;;;;;;;;;5055070;28;20306;-71
2022/05/26 00:09:48;;;;;;;4.70;1.17;;;;;;;;;;5035140;28;20219;-71
2022/05/26 00:12:14;;;;;;;4.10;1.00;;;;;;;;;;5057101;28;20368;-72
2022/05/26 00:14:42;;;;;;;2.03;1.15;;;;;;;;;;5066671;28;20783;-72
2022/05/26 00:17:07;;;;;;;4.55;1.15;;;;;;;;;;5045381;28;20220;-73
2022/05/26 00:19:35;;;;;;;1.67;1.05;;;;;;;;;;5047783;28;20897;-72
2022/05/26 00:25:42;;;;;;;2.72;1.05;;;;;;;;;;5055417;28;20234;-72
2022/05/26 00:28:08;;;;;;;1.85;1.20;;;;;;;;;;5058644;28;20306;-72
2022/05/26 00:30:38;;;;;;;4.60;1.08;;;;;;;;;;5056460;28;20771;-71
2022/05/26 00:33:07;;;;;;;3.75;1.02;;;;;;;;;;5063463;28;20783;-72
2022/05/26 00:35:34;;;;;;;2.45;1.20;;;;;;;;;;5035868;28;20227;-72
2022/05/26 00:38:04;;;;;;;3.15;1.30;;;;;;;;;;5054637;28;20708;-72
2022/05/26 00:40:30;;;;;;;5.55;1.35;;;;;;;;;;5026612;28;20254;-71
2022/05/26 00:43:00;;;;;;;3.78;1.33;;;;;;;;;;5035269;28;20223;-71
2022/05/26 00:45:42;;;;;;;1.83;1.23;;;;;;;;;;5042380;28;20219;-71
2022/05/26 00:48:11;;;;;;;4.35;1.33;;;;;;;;;;5048744;28;20283;-71
2022/05/26 00:50:51;;;;;;;2.08;0.95;;;;;;;;;;5046837;28;20356;-71
2022/05/26 00:53:23;;;;;;;2.72;1.15;;;;;;;;;;5032042;28;21783;-70
2022/05/26 00:56:00;;;;;;;3.05;1.38;;;;;;;;;;5038427;28;20279;-71
2022/05/26 00:58:30;;;;;;;2.45;1.20;;;;;;;;;;5027790;28;20222;-72
2022/05/26 01:00:59;;;;;;;1.88;1.27;;;;;;;;;;5052532;28;20268;-73
2022/05/26 01:03:38;;;;;;;1.52;1.23;;;;;;;;;;5033773;28;20284;-72
2022/05/26 01:06:07;;;;;;;3.25;1.25;;;;;;;;;;5057422;28;20230;-72
2022/05/26 01:08:50;;;;;;;2.90;1.48;;;;;;;;;;5059177;28;20226;-71
2022/05/26 01:11:15;;;;;;;1.48;1.23;;;;;;;;;;5042785;28;20699;-71
2022/05/26 01:13:45;;;;;;;1.70;1.30;;;;;;;;;;5008140;28;20214;-70
2022/05/26 01:16:17;;;;;;;3.42;1.35;;;;;;;;;;5043800;28;20246;-71
2022/05/26 01:18:58;;;;;;;2.22;1.40;;;;;;;;;;5060835;28;20669;-71
2022/05/26 01:21:59;;;;;;;3.80;1.30;;;;;;;;;;5023050;28;20219;-71
2022/05/26 01:24:41;;;;;;;1.58;1.00;;;;;;;;;;5064234;28;20214;-71
2022/05/26 01:27:18;;;;;;;2.63;1.10;;;;;;;;;;5062703;28;20291;-71
2022/05/26 01:30:05;;;;;;;2.13;1.05;;;;;;;;;;5060838;28;20256;-72
2022/05/26 01:33:02;;;;;;;4.47;1.15;;;;;;;;;;5057338;28;20215;-71
2022/05/26 01:35:30;;;;;;;1.87;1.27;;;;;;;;;;5058720;28;20299;-71
2022/05/26 01:38:10;;;;;;;1.98;1.17;;;;;;;;;;5050215;28;20226;-70
2022/05/26 01:41:11;;;;;;;3.42;1.60;;;;;;;;;;5042870;28;20230;-71
2022/05/26 01:43:48;;;;;;;4.38;2.15;;;;;;;;;;5041330;28;20264;-71
2022/05/26 01:46:22;;;;;;;2.60;2.20;;;;;;;;;;5028916;28;20277;-71
2022/05/26 01:48:53;;;;;;;2.80;2.10;;;;;;;;;;5046239;28;20227;-71
2022/05/26 01:51:27;;;;;;;3.17;2.10;;;;;;;;;;5048481;28;20227;-72
2022/05/26 01:54:00;;;;;;;3.20;1.83;;;;;;;;;;5062657;28;20235;-72
2022/05/26 01:56:33;;;;;;;4.03;2.42;;;;;;;;;;5059046;28;20227;-72
2022/05/26 01:59:11;;;;;;;3.33;2.20;;;;;;;;;;5133862;22;20242;-71
2022/05/26 02:01:40;;;;;;;4.37;2.27;;;;;;;;;;5004677;28;20215;-71
2022/05/26 02:04:08;;;;;;;2.73;2.20;;;;;;;;;;5008775;28;20230;-72
2022/05/26 02:06:39;;;;;;;4.27;2.00;;;;;;;;;;5008944;28;20277;-72
2022/05/26 02:09:11;;;;;;;2.80;2.10;;;;;;;;;;5006914;28;20231;-71
2022/05/26 02:12:11;;;;;;;2.80;2.13;;;;;;;;;;5026000;28;20224;-72
2022/05/26 02:14:44;;;;;;;4.03;2.30;;;;;;;;;;4996865;28;20255;-72
2022/05/26 02:17:45;;;;;;;6.13;3.00;;;;;;;;;;4996693;28;20238;-72
2022/05/26 02:20:24;;;;;;;3.37;2.93;;;;;;;;;;4987670;28;20219;-71
2022/05/26 02:23:13;;;;;;;4.40;3.43;;;;;;;;;;5022389;28;20302;-71
2022/05/26 02:25:39;;;;;;;4.90;3.50;;;;;;;;;;5002185;28;20224;-71
2022/05/26 02:28:05;;;;;;;6.20;3.92;;;;;;;;;;4995935;28;20224;-71
2022/05/26 02:30:33;;;;;;;6.07;3.83;;;;;;;;;;4995392;28;20223;-71
2022/05/26 02:33:01;;;;;;;5.10;3.80;;;;;;;;;;4997689;28;20228;-71
2022/05/26 02:35:33;;;;;;;5.83;4.40;;;;;;;;;;4990730;28;20223;-70
2022/05/26 02:38:16;;;;;;;5.40;4.33;;;;;;;;;;4985119;28;20221;-70
2022/05/26 02:40:44;;;;;;;7.35;4.78;;;;;;;;;;5021190;28;20221;-70
2022/05/26 02:43:19;;;;;;;5.53;5.00;;;;;;;;;;4993065;28;20761;-70
2022/05/26 02:45:53;;;;;;;7.03;5.43;;;;;;;;;;4995214;28;20231;-70
2022/05/26 02:48:33;;;;;;;6.28;5.78;;;;;;;;;;5008521;28;20308;-70
2022/05/26 02:51:13;;;;;;;7.10;6.40;;;;;;;;;;4995580;28;20245;-70
2022/05/26 02:54:24;;;;;;;7.00;6.33;;;;;;;;;;5029961;28;20220;-71
2022/05/26 02:57:21;;;;;;;6.67;6.07;;;;;;;;;;4989685;28;20235;-70
2022/05/26 03:00:05;;;;;;;6.47;5.77;;;;;;;;;;5006063;28;20235;-70
2022/05/26 03:02:42;;;;;;;6.80;6.20;;;;;;;;;;5014526;28;20224;-72
2022/05/26 03:05:12;;;;;;;7.93;7.17;;;;;;;;;;5017289;28;20235;-70
2022/05/26 03:07:39;;;;;;;7.67;6.97;;;;;;;;;;5004590;28;20317;-71
2022/05/26 03:10:05;;;;;;;9.53;8.53;;;;;;;;;;4985993;28;20716;-70
2022/05/26 03:12:33;;;;;;;9.53;8.63;;;;;;;;;;4992472;28;20219;-70
2022/05/26 03:15:01;;;;;;;10.03;8.33;;;;;;;;;;4965109;28;20645;-71
2022/05/26 03:17:27;;;;;;;9.47;8.40;;;;;;;;;;5004187;28;20223;-70
2022/05/26 03:19:52;;;;;;;7.03;6.37;;;;;;;;;;5003278;28;20233;-71
2022/05/26 03:22:18;;;;;;;7.63;6.83;;;;;;;;;;5012245;28;20649;-70
2022/05/26 03:24:46;;;;;;;7.33;6.03;;;;;;;;;;5002986;28;20727;-72
2022/05/26 03:27:14;;;;;;;7.63;5.87;;;;;;;;;;5026041;28;20233;-71
2022/05/26 03:29:42;;;;;;;8.02;6.10;;;;;;;;;;4985547;28;20239;-71
2022/05/26 03:32:10;;;;;;;7.50;5.70;;;;;;;;;;4991394;28;20277;-72
2022/05/26 03:42:54;;;;;;;9.00;8.20;;;;;;;;;;5034955;28;20231;-71
2022/05/26 03:45:22;;;;;;;9.80;8.50;;;;;;;;;;4977549;28;20307;-71
2022/05/26 03:47:53;;;;;;;9.57;8.70;;;;;;;;;;4993483;28;20279;-72
2022/05/26 03:50:18;;;;;;;9.43;8.50;;;;;;;;;;4998840;28;20740;-71
2022/05/26 03:52:44;;;;;;;9.93;8.93;;;;;;;;;;5000553;28;20224;-71
2022/05/26 03:55:11;;;;;;;9.57;8.60;;;;;;;;;;5016343;28;20216;-71
2022/05/26 03:57:37;;;;;;;9.37;8.40;;;;;;;;;;5013599;28;20236;-71
2022/05/26 04:00:04;;;;;;;10.43;8.33;;;;;;;;;;4982586;28;20228;-72
2022/05/26 04:02:37;;;;;;;8.53;7.70;;;;;;;;;;5034773;28;20233;-71
2022/05/26 04:05:02;;;;;;;8.33;7.53;;;;;;;;;;5005046;28;20306;-72
2022/05/26 04:07:28;;;;;;;8.47;7.20;;;;;;;;;;5017618;28;20273;-71
2022/05/26 04:09:56;;;;;;;7.33;6.43;;;;;;;;;;5037613;28;20342;-72
2022/05/26 04:12:21;;;;;;;8.87;6.60;;;;;;;;;;5015403;28;20227;-71
2022/05/26 04:14:46;;;;;;;7.13;6.07;;;;;;;;;;4981959;28;20232;-71
2022/05/26 04:17:12;;;;;;;6.50;5.80;;;;;;;;;;4990006;28;20276;-72
2022/05/26 04:19:41;;;;;;;6.10;5.47;;;;;;;;;;5032833;28;20315;-72
2022/05/26 04:22:23;;;;;;;7.37;5.20;;;;;;;;;;5017260;28;20302;-71
2022/05/26 04:24:55;;;;;;;5.37;4.80;;;;;;;;;;5007044;28;20591;-71
2022/05/26 04:27:21;;;;;;;5.97;5.33;;;;;;;;;;4986644;28;20299;-72
2022/05/26 04:29:49;;;;;;;5.23;4.73;;;;;;;;;;5039857;28;20222;-71
2022/05/26 04:32:15;;;;;;;5.33;4.83;;;;;;;;;;4986051;28;20221;-70
2022/05/26 04:34:40;;;;;;;5.20;4.70;;;;;;;;;;5005066;28;20232;-71
2022/05/26 04:37:08;;;;;;;5.50;4.97;;;;;;;;;;5013341;28;20220;-72
2022/05/26 04:39:34;;;;;;;5.40;4.90;;;;;;;;;;5034749;28;20236;-70
2022/05/26 04:42:03;;;;;;;7.30;5.50;;;;;;;;;;4988328;28;20717;-71
2022/05/26 04:44:31;;;;;;;6.67;5.90;;;;;;;;;;5000692;28;20219;-70
2022/05/26 04:46:56;;;;;;;7.20;5.47;;;;;;;;;;5018033;28;20219;-71
2022/05/26 04:49:21;;;;;;;6.30;5.17;;;;;;;;;;4990248;28;21008;-71
2022/05/26 04:51:47;;;;;;;6.30;5.70;;;;;;;;;;5022334;28;20235;-71
2022/05/26 04:54:16;;;;;;;6.10;5.50;;;;;;;;;;4994093;28;20319;-72
2022/05/26 04:56:44;;;;;;;6.80;6.20;;;;;;;;;;5016324;28;20228;-72
2022/05/26 04:59:09;;;;;;;7.37;6.23;;;;;;;;;;4986367;28;20224;-71
2022/05/26 05:01:37;;;;;;;8.37;6.70;;;;;;;;;;4983652;28;20285;-72
2022/05/26 05:04:05;;;;;;;10.00;7.23;;;;;;;;;;5037210;28;20224;-71
2022/05/26 05:06:32;;;;;;;8.80;7.63;;;;;;;;;;5019379;28;20231;-71
2022/05/26 05:09:00;;;;;;;8.97;7.10;;;;;;;;;;5010097;28;20227;-71
2022/05/26 05:11:26;;;;;;;9.50;7.37;;;;;;;;;;4992945;28;20578;-72
2022/05/26 05:13:55;;;;;;;10.45;7.72;;;;;;;;;;5011530;28;20705;-71
2022/05/26 05:16:27;;;;;;;8.10;7.30;;;;;;;;;;4987916;28;20651;-72
2022/05/26 05:18:57;;;;;;;9.00;7.50;;;;;;;;;;4984823;28;20228;-71
2022/05/26 05:21:38;;;;;;;8.63;7.83;;;;;;;;;;5004139;28;20223;-71
2022/05/26 05:24:26;;;;;;;8.60;7.10;;;;;;;;;;5019622;28;20694;-71
2022/05/26 05:26:53;;;;;;;8.55;7.45;;;;;;;;;;5018875;28;20232;-71
2022/05/26 05:29:23;;;;;;;11.00;7.55;;;;;;;;;;4980526;28;20252;-72
2022/05/26 05:31:55;;;;;;;9.65;6.90;;;;;;;;;;4990351;28;20608;-71
2022/05/26 05:34:29;;;;;;;8.75;6.93;;;;;;;;;;5016651;28;20220;-72
2022/05/26 05:36:58;;;;;;;10.52;6.80;;;;;;;;;;5033441;28;20269;-72
2022/05/26 05:39:24;;;;;;;7.35;6.55;;;;;;;;;;5002794;28;20231;-72
2022/05/26 05:41:50;;;;;;;8.02;6.55;;;;;;;;;;4978598;28;20219;-72
2022/05/26 05:44:15;;;;;;;9.77;7.15;;;;;;;;;;5019503;28;20298;-72
2022/05/26 05:46:57;;;;;;;7.70;6.82;;;;;;;;;;5031097;28;20684;-72
2022/05/26 05:49:27;;;;;;;11.32;6.90;;;;;;;;;;5010512;28;20240;-72
2022/05/26 05:51:55;;;;;;;8.23;7.00;;;;;;;;;;4998591;28;20220;-72
2022/05/26 05:54:25;;;;;;;8.10;6.57;;;;;;;;;;5036219;28;20215;-72
2022/05/26 05:56:51;;;;;;;7.78;6.50;;;;;;;;;;5006766;28;20318;-72
2022/05/26 05:59:19;;;;;;;11.90;6.88;;;;;;;;;;5003807;28;20244;-72
2022/05/26 06:01:44;;;;;;;10.10;6.63;;;;;;;;;;5015046;28;20304;-72
2022/05/26 06:04:15;;;;;;;9.48;6.30;;;;;;;;;;5005645;28;20242;-71
2022/05/26 06:06:42;;;;;;;6.70;5.97;;;;;;;;;;5023855;28;20655;-71
2022/05/26 06:09:08;;;;;;;9.55;6.07;;;;;;;;;;5010836;28;20227;-71
2022/05/26 06:11:33;;;;;;;6.82;5.80;;;;;;;;;;5014807;28;20216;-71
2022/05/26 06:14:00;;;;;;;11.27;6.22;;;;;;;;;;5002205;28;20793;-70
2022/05/26 06:16:28;;;;;;;8.32;5.72;;;;;;;;;;4988812;28;20313;-70
2022/05/26 06:18:53;;;;;;;9.10;6.03;;;;;;;;;;5028530;28;20701;-71
2022/05/26 06:21:19;;;;;;;9.85;6.03;;;;;;;;;;5007869;28;20226;-72
2022/05/26 06:23:44;;;;;;;9.80;6.10;;;;;;;;;;4987259;28;20223;-70
2022/05/26 06:26:10;;;;;;;9.02;6.18;;;;;;;;;;5009251;28;20290;-73
2022/05/26 06:31:23;;;;;;;8.32;5.90;;;;;;;;;;4982021;28;20208;-71
2022/05/26 06:39:26;;;;;;;9.10;6.25;;;;;;;;;;4988315;28;20227;-72
2022/05/26 06:42:06;;;;;;;10.00;6.15;;;;;;;;;;5008140;28;20303;-72
2022/05/26 06:44:46;;;;;;;14.85;6.40;;;;;;;;;;5000987;28;20294;-72
2022/05/26 06:47:21;;;;;;;9.95;5.68;;;;;;;;;;5033391;28;20228;-72
2022/05/26 06:49:49;;;;;;;8.45;5.60;;;;;;;;;;4993136;28;20249;-72
2022/05/26 06:52:19;;;;;;;12.40;6.22;;;;;;;;;;4987296;28;20235;-72
2022/05/26 06:54:45;;;;;;;12.23;6.40;;;;;;;;;;5004957;28;20219;-71
2022/05/26 06:57:13;;;;;;;8.77;6.82;;;;;;;;;;4993247;28;20710;-70
2022/05/26 06:59:41;;;;;;;7.78;5.70;;;;;;;;;;5008676;28;20284;-71
2022/05/26 07:02:10;;;;;;;13.48;5.50;;;;;;;;;;4972223;28;20231;-71
2022/05/26 07:04:36;;;;;;;9.40;5.78;;;;;;;;;;5000580;28;20370;-71
2022/05/26 07:07:04;;;;;;;9.98;5.78;;;;;;;;;;4968228;28;20736;-71
2022/05/26 07:09:37;;;;;;;7.65;4.97;;;;;;;;;;4980342;28;20230;-72
2022/05/26 07:12:05;;;;;;;12.48;5.38;;;;;;;;;;5003805;28;20296;-71
2022/05/26 07:14:33;;;;;;;8.80;4.93;;;;;;;;;;5000964;28;20315;-71
2022/05/26 07:16:59;;;;;;;8.10;4.35;;;;;;;;;;5003659;28;20224;-70
2022/05/26 07:19:24;;;;;;;9.65;4.88;;;;;;;;;;5022107;28;20239;-71
2022/05/26 07:21:50;;;;;;;10.73;5.50;;;;;;;;;;5003238;28;20231;-72
2022/05/26 07:24:20;;;;;;;11.60;5.35;;;;;;;;;;5018306;28;20212;-72
2022/05/26 07:26:50;;;;;;;7.68;5.00;;;;;;;;;;4996515;28;20222;-71
2022/05/26 07:29:18;;;;;;;8.57;5.20;;;;;;;;;;4987237;28;20217;-70
2022/05/26 07:31:43;;;;;;;8.07;4.55;;;;;;;;;;5013535;28;20223;-71
2022/05/26 07:34:09;;;;;;;7.90;4.55;;;;;;;;;;4976314;28;20224;-71
2022/05/26 07:42:10;;;;;;;7.85;3.88;;;;;;;;;;5020342;28;20247;-71
2022/05/26 07:44:39;;;;;;;7.57;3.28;;;;;;;;;;5019470;28;20228;-71
2022/05/26 07:47:06;;;;;;;8.77;4.00;;;;;;;;;;4999947;28;20227;-71
2022/05/26 07:49:42;;;;;;;8.57;3.30;;;;;;;;;;4978749;28;20288;-72
2022/05/26 07:52:10;;;;;;;6.13;3.00;;;;;;;;;;4979488;28;20236;-72
2022/05/26 07:54:39;;;;;;;12.10;3.20;;;;;;;;;;5022006;28;20264;-72
2022/05/26 07:57:10;;;;;;;5.75;2.40;;;;;;;;;;5007902;28;20220;-71
2022/05/26 07:59:38;;;;;;;5.65;1.65;;;;;;;;;;5002885;28;20231;-71
2022/05/26 08:02:06;;;;;;;3.42;1.85;;;;;;;;;;5039408;28;20222;-71
2022/05/26 08:04:31;;;;;;;7.05;1.73;;;;;;;;;;4984352;28;20315;-71
2022/05/26 08:06:57;;;;;;;3.63;1.40;;;;;;;;;;5014252;28;20307;-71
2022/05/26 08:09:22;;;;;;;4.30;1.33;;;;;;;;;;4995932;28;20316;-70
2022/05/26 08:11:48;;;;;;;4.13;1.63;;;;;;;;;;4998638;28;20409;-71
2022/05/26 08:14:13;;;;;;;4.47;1.75;;;;;;;;;;5018063;28;20254;-72
2022/05/26 08:16:41;;;;;;;6.97;1.83;;;;;;;;;;5000943;28;20609;-70
2022/05/26 08:19:09;;;;;;;3.28;1.52;;;;;;;;;;5015718;28;20220;-70
2022/05/26 08:21:35;;;;;;;7.20;2.33;;;;;;;;;;4986700;28;20224;-71
2022/05/26 08:24:04;;;;;;;4.90;2.00;;;;;;;;;;5018825;28;20230;-70
2022/05/26 08:26:32;;;;;;;4.07;1.95;;;;;;;;;;5015096;28;20711;-71
2022/05/26 08:28:57;;;;;;;8.52;2.10;;;;;;;;;;4993970;28;20311;-70
2022/05/26 08:31:23;;;;;;;4.78;1.88;;;;;;;;;;5008864;28;20223;-71
2022/05/26 08:33:54;;;;;;;6.53;1.98;;;;;;;;;;4984725;28;20223;-71
2022/05/26 08:36:21;;;;;;;4.05;1.80;;;;;;;;;;5017244;28;20329;-71
2022/05/26 08:38:47;;;;;;;3.95;1.80;;;;;;;;;;4985468;28;20228;-71
2022/05/26 08:41:18;;;;;;;4.97;1.80;;;;;;;;;;5016767;28;20223;-72
2022/05/26 08:43:46;;;;;;;4.47;1.92;;;;;;;;;;4986129;28;20220;-71
2022/05/26 08:46:13;;;;;;;5.15;2.10;;;;;;;;;;4993688;28;20204;-72
2022/05/26 08:48:58;;;;;;;4.47;2.00;;;;;;;;;;4997611;28;20692;-72
2022/05/26 08:51:35;;;;;;;4.18;2.00;;;;;;;;;;5036107;28;20226;-70
2022/05/26 08:54:03;;;;;;;4.28;2.10;;;;;;;;;;5017228;28;20234;-70
2022/05/26 08:56:31;;;;;;;3.85;1.70;;;;;;;;;;4999395;28;20216;-70
2022/05/26 08:59:04;;;;;;;4.50;1.85;;;;;;;;;;5035493;28;20262;-71
2022/05/26 09:01:32;;;;;;;5.47;1.70;;;;;;;;;;5008131;28;20231;-71
2022/05/26 09:03:59;;;;;;;4.72;1.92;;;;;;;;;;5005174;28;20259;-72
2022/05/26 09:06:26;;;;;;;4.70;1.73;;;;;;;;;;5009693;28;20274;-72
2022/05/26 09:14:19;;;;;;;7.28;1.90;;;;;;;;;;5021155;28;20253;-71
2022/05/26 09:16:44;;;;;;;4.45;1.63;;;;;;;;;;4986673;28;20220;-71
2022/05/26 09:19:18;;;;;;;4.32;1.60;;;;;;;;;;5017663;28;20220;-69
2022/05/26 09:21:47;;;;;;;5.90;1.63;;;;;;;;;;4988644;28;20216;-72
2022/05/26 09:24:34;;;;;;;2.92;1.23;;;;;;;;;;4977445;28;20232;-71
2022/05/26 09:27:07;;;;;;;2.83;1.20;;;;;;;;;;5017518;28;20219;-71
2022/05/26 09:29:37;;;;;;;3.33;1.40;;;;;;;;;;4988710;28;20231;-71
2022/05/26 09:32:03;;;;;;;3.83;1.20;;;;;;;;;;4991942;28;20227;-74
2022/05/26 09:34:33;;;;;;;4.00;1.13;;;;;;;;;;4995162;28;20235;-71
2022/05/26 09:37:03;;;;;;;4.45;1.33;;;;;;;;;;4988752;28;20294;-71
2022/05/26 09:39:39;;;;;;;2.80;1.00;;;;;;;;;;4999559;28;20220;-71
2022/05/26 09:42:16;;;;;;;3.70;1.20;;;;;;;;;;4991572;28;20701;-70
2022/05/26 09:45:04;;;;;;;2.08;1.02;;;;;;;;;;5033515;28;20227;-72
2022/05/26 09:47:37;;;;;;;3.78;1.02;;;;;;;;;;5012178;28;20303;-72
2022/05/26 09:50:08;;;;;;;3.05;1.00;;;;;;;;;;5000000;28;20227;-72
2022/05/26 09:52:49;;;;;;;3.10;1.10;;;;;;;;;;4986389;28;20234;-71
2022/05/26 09:55:26;;;;;;;4.93;1.23;;;;;;;;;;4985134;28;20307;-71
2022/05/26 09:58:06;;;;;;;3.25;1.25;;;;;;;;;;5015261;28;20231;-71
2022/05/26 10:00:47;;;;;;;2.50;0.98;;;;;;;;;;5026040;28;20239;-70
2022/05/26 10:03:29;;;;;;;3.30;0.98;;;;;;;;;;4989338;28;20221;-71
2022/05/26 10:05:57;;;;;;;3.95;1.05;;;;;;;;;;4998676;28;20811;-72
2022/05/26 10:08:30;;;;;;;4.20;1.10;;;;;;;;;;5026088;28;20220;-72
2022/05/26 10:11:24;;;;;;;2.85;1.13;;;;;;;;;;5005441;28;20263;-71
2022/05/26 10:14:00;;;;;;;2.35;1.00;;;;;;;;;;5014566;28;20243;-71
2022/05/26 10:16:28;;;;;;;2.72;1.00;;;;;;;;;;5021158;28;20215;-72
2022/05/26 10:19:14;;;;;;;2.85;1.10;;;;;;;;;;5000166;28;20237;-70
2022/05/26 10:22:30;;;;;;;2.47;0.93;;;;;;;;;;5020616;28;20238;-72
2022/05/26 10:25:11;;;;;;;3.33;0.95;;;;;;;;;;5013179;28;20675;-72
2022/05/26 10:28:11;;;;;;;1.90;0.88;;;;;;;;;;5009230;28;20231;-71
2022/05/26 10:31:18;;;;;;;4.63;1.20;;;;;;;;;;5018354;28;20298;-71
2022/05/26 10:34:14;;;;;;;2.97;1.02;;;;;;;;;;4987609;28;20227;-73
2022/05/26 10:36:48;;;;;;;2.80;0.93;;;;;;;;;;5019738;28;20579;-71
2022/05/26 10:39:25;;;;;;;3.30;0.98;;;;;;;;;;4996882;28;20224;-71
2022/05/26 10:41:51;;;;;;;2.90;1.00;;;;;;;;;;4996443;28;20236;-71
2022/05/26 10:44:26;;;;;;;2.97;1.13;;;;;;;;;;5002371;28;20696;-70
2022/05/26 10:47:02;;;;;;;2.70;1.17;;;;;;;;;;5014586;28;20254;-71
2022/05/26 10:49:42;;;;;;;1.85;0.88;;;;;;;;;;5015544;28;20224;-70
2022/05/26 10:52:23;;;;;;;3.00;1.05;;;;;;;;;;5039565;28;20228;-70
2022/05/26 10:55:11;;;;;;;3.45;1.00;;;;;;;;;;5003433;28;20304;-72
2022/05/26 10:57:51;;;;;;;1.60;0.82;;;;;;;;;;4995830;28;20304;-71
2022/05/26 11:00:24;;;;;;;2.92;0.93;;;;;;;;;;5003762;28;20247;-71
2022/05/26 11:03:19;;;;;;;2.92;1.02;;;;;;;;;;4988951;28;20224;-71
2022/05/26 11:05:51;;;;;;;3.38;0.90;;;;;;;;;;5008349;28;20252;-71
2022/05/26 11:08:41;;;;;;;2.85;0.90;;;;;;;;;;4986886;28;20701;-71
2022/05/26 11:11:12;;;;;;;4.85;0.95;;;;;;;;;;5020786;28;20220;-73
2022/05/26 11:14:06;;;;;;;2.15;1.02;;;;;;;;;;5018646;28;20216;-71
2022/05/26 11:19:54;;;;;;;4.07;1.20;;;;;;;;;;5003988;28;20236;-71
2022/05/26 11:22:22;;;;;;;3.17;0.75;;;;;;;;;;5013291;28;20227;-71
2022/05/26 11:24:48;;;;;;;4.30;1.00;;;;;;;;;;4993866;28;20219;-71
2022/05/26 11:27:15;;;;;;;2.03;0.80;;;;;;;;;;5016237;28;20226;-71
2022/05/26 11:29:45;;;;;;;2.08;0.85;;;;;;;;;;5004359;28;20298;-73
2022/05/26 11:37:37;;;;;;;2.05;0.70;;;;;;;;;;5034474;28;20705;-72
2022/05/26 11:40:09;;;;;;;3.03;0.82;;;;;;;;;;5018087;28;20235;-70
2022/05/26 11:42:46;;;;;;;2.22;0.65;;;;;;;;;;4980656;28;20223;-72
2022/05/26 11:45:22;;;;;;;1.92;0.80;;;;;;;;;;5004742;28;20255;-70
2022/05/26 11:48:00;;;;;;;1.77;0.85;;;;;;;;;;5021450;28;20225;-71
2022/05/26 11:50:26;;;;;;;1.90;1.00;;;;;;;;;;5012783;28;20318;-71
2022/05/26 11:52:52;;;;;;;2.90;0.80;;;;;;;;;;5019261;28;20311;-72
2022/05/26 11:55:26;;;;;;;2.17;0.80;;;;;;;;;;5018206;28;20771;-70
2022/05/26 11:57:53;;;;;;;2.55;0.80;;;;;;;;;;5022896;28;20240;-70
2022/05/26 12:00:37;;;;;;;2.60;0.70;;;;;;;;;;4997631;28;20217;-70
2022/05/26 12:03:23;;;;;;;3.20;1.10;;;;;;;;;;4998892;28;20249;-70
2022/05/26 12:05:59;;;;;;;2.90;0.80;;;;;;;;;;5005444;28;20229;-72
2022/05/26 12:08:32;;;;;;;1.88;0.80;;;;;;;;;;5035814;28;20569;-71
2022/05/26 12:11:06;;;;;;;1.95;0.90;;;;;;;;;;4994098;28;20230;-72
2022/05/26 12:13:37;;;;;;;0.90;0.70;;;;;;;;;;5007527;28;20234;-71
2022/05/26 12:16:24;;;;;;;1.13;0.60;;;;;;;;;;5003940;28;20226;-71
2022/05/26 12:18:53;;;;;;;1.50;0.80;;;;;;;;;;5018495;28;20239;-70
2022/05/26 12:21:29;;;;;;;3.40;0.73;;;;;;;;;;5000483;28;20232;-70
2022/05/26 12:24:04;;;;;;;3.30;0.80;;;;;;;;;;4999955;28;20303;-72
2022/05/26 12:26:49;;;;;;;1.30;0.57;;;;;;;;;;4993242;28;20696;-72
2022/05/26 12:29:45;;;;;;;3.90;0.90;;;;;;;;;;5004653;28;20266;-72
2022/05/26 12:32:11;;;;;;;2.72;0.70;;;;;;;;;;5019370;28;20228;-72
2022/05/26 12:34:59;;;;;;;1.52;0.60;;;;;;;;;;5006189;28;20255;-71
2022/05/26 12:37:37;;;;;;;3.83;0.82;;;;;;;;;;5015615;28;20234;-71
2022/05/26 12:40:17;;;;;;;2.28;0.80;;;;;;;;;;4997315;28;20231;-72
2022/05/26 12:42:57;;;;;;;2.38;0.80;;;;;;;;;;4999030;28;20228;-70
2022/05/26 12:45:41;;;;;;;3.67;1.00;;;;;;;;;;5020204;28;20219;-70
2022/05/26 12:48:16;;;;;;;4.55;1.00;;;;;;;;;;5005968;28;20235;-70
2022/05/26 12:50:46;;;;;;;1.95;0.77;;;;;;;;;;5039865;28;20223;-72
2022/05/26 12:53:27;;;;;;;2.53;0.80;;;;;;;;;;5036827;28;20223;-71
2022/05/26 12:56:00;;;;;;;2.83;1.20;;;;;;;;;;4993513;28;20227;-72
2022/05/26 12:58:31;;;;;;;2.20;0.70;;;;;;;;;;4992670;28;20235;-72
2022/05/26 13:00:57;;;;;;;1.30;0.60;;;;;;;;;;5032694;28;20225;-71
2022/05/26 13:03:42;;;;;;;1.48;0.85;;;;;;;;;;5017915;28;20241;-72
2022/05/26 13:06:09;;;;;;;1.27;0.60;;;;;;;;;;4995139;28;20251;-71
2022/05/26 13:08:58;;;;;;;2.28;0.70;;;;;;;;;;5020272;28;20322;-70
2022/05/26 13:11:25;;;;;;;1.83;0.80;;;;;;;;;;5018307;28;20272;-70
2022/05/26 13:14:06;;;;;;;0.98;0.70;;;;;;;;;;4979924;28;20229;-71
2022/05/26 13:16:39;;;;;;;2.95;0.80;;;;;;;;;;5026499;28;20308;-70
2022/05/26 13:19:07;;;;;;;2.78;0.75;;;;;;;;;;4996031;28;20267;-71
2022/05/26 13:21:35;;;;;;;1.30;0.70;;;;;;;;;;5037320;28;20315;-71
2022/05/26 13:24:00;;;;;;;1.48;0.77;;;;;;;;;;5003352;28;20240;-70
2022/05/26 13:26:28;;;;;;;4.18;0.90;;;;;;;;;;5034751;28;20597;-70
2022/05/26 13:28:58;;;;;;;1.55;0.50;;;;;;;;;;5014272;28;20212;-71
2022/05/26 13:34:13;;;;;;;1.73;0.70;;;;;;;;;;4999447;28;20228;-72
2022/05/26 13:36:41;;;;;;;2.42;0.80;;;;;;;;;;4998216;28;20232;-73
2022/05/26 13:39:23;;;;;;;3.65;0.90;;;;;;;;;;5018034;28;20307;-71
2022/05/26 13:41:51;;;;;;;1.33;0.60;;;;;;;;;;5006672;28;20226;-71
2022/05/26 13:44:48;;;;;;;1.58;0.60;;;;;;;;;;5005488;28;20216;-71
2022/05/26 13:47:14;;;;;;;2.95;0.80;;;;;;;;;;4937137;28;20257;-70
2022/05/26 13:49:43;;;;;;;1.52;0.70;;;;;;;;;;5010044;28;20290;-71
2022/05/26 13:52:35;;;;;;;2.25;0.70;;;;;;;;;;5013538;28;20238;-71
2022/05/26 13:55:20;;;;;;;2.22;0.60;;;;;;;;;;4981585;28;20262;-70
2022/05/26 13:57:47;;;;;;;3.50;0.68;;;;;;;;;;5037368;28;20581;-71
2022/05/26 14:00:19;;;;;;;1.60;0.70;;;;;;;;;;4994808;28;20641;-72
2022/05/26 14:02:52;;;;;;;1.65;0.57;;;;;;;;;;5007237;28;20300;-71
2022/05/26 14:05:22;;;;;;;2.75;0.93;;;;;;;;;;5018979;28;20219;-70
2022/05/26 14:07:57;;;;;;;2.95;0.80;;;;;;;;;;5012299;28;20270;-72
2022/05/26 14:10:48;;;;;;;1.23;0.70;;;;;;;;;;5013907;28;20323;-71
2022/05/26 14:13:14;;;;;;;3.30;0.65;;;;;;;;;;5001228;28;20640;-72
2022/05/26 14:15:47;;;;;;;2.58;0.70;;;;;;;;;;5015214;28;20286;-72
2022/05/26 14:18:30;;;;;;;3.00;0.88;;;;;;;;;;4990762;28;20722;-71
2022/05/26 14:21:05;;;;;;;1.77;0.70;;;;;;;;;;5013994;28;20265;-71
2022/05/26 14:23:35;;;;;;;3.22;0.73;;;;;;;;;;5035223;28;20237;-71
2022/05/26 14:26:19;;;;;;;1.13;0.60;;;;;;;;;;4988294;28;20298;-71
2022/05/26 14:28:49;;;;;;;3.00;0.80;;;;;;;;;;5019556;28;20227;-70
2022/05/26 14:31:20;;;;;;;1.33;0.60;;;;;;;;;;5001167;28;20231;-72
2022/05/26 14:34:07;;;;;;;1.85;0.77;;;;;;;;;;5000246;28;20246;-71
2022/05/26 14:36:34;;;;;;;1.63;0.70;;;;;;;;;;5020517;28;20228;-71
2022/05/26 14:39:03;;;;;;;2.05;0.80;;;;;;;;;;5032212;28;20228;-72
2022/05/26 14:41:31;;;;;;;2.00;0.70;;;;;;;;;;5001914;28;20384;-71
2022/05/26 14:44:03;;;;;;;1.42;0.55;;;;;;;;;;5019466;28;20304;-70
2022/05/26 14:46:30;;;;;;;3.95;0.60;;;;;;;;;;5000378;28;20223;-71
2022/05/26 14:49:03;;;;;;;2.53;0.70;;;;;;;;;;5020767;28;20682;-72
2022/05/26 14:51:30;;;;;;;0.95;0.65;;;;;;;;;;5035267;28;20311;-71
2022/05/26 14:56:45;;;;;;;2.35;0.90;;;;;;;;;;5015079;28;20231;-71
2022/05/26 14:59:15;;;;;;;1.55;0.90;;;;;;;;;;5026210;28;20224;-71
2022/05/26 15:01:43;;;;;;;1.73;0.82;;;;;;;;;;5004218;28;20240;-71
2022/05/26 15:04:09;;;;;;;1.77;0.82;;;;;;;;;;5018998;28;20662;-71
2022/05/26 15:06:42;;;;;;;1.98;0.73;;;;;;;;;;5016821;28;20228;-72
2022/05/26 15:09:22;;;;;;;3.08;0.90;;;;;;;;;;5003313;28;20231;-71
2022/05/26 15:11:48;;;;;;;2.20;0.98;;;;;;;;;;5004779;28;20289;-71
2022/05/26 15:14:15;;;;;;;1.92;0.80;;;;;;;;;;4962451;28;20710;-74
2022/05/26 15:16:45;;;;;;;1.95;1.00;;;;;;;;;;5026712;28;20787;-70
2022/05/26 15:19:11;;;;;;;1.90;1.00;;;;;;;;;;4998934;28;20224;-72
2022/05/26 15:21:39;;;;;;;1.98;0.90;;;;;;;;;;5003694;28;20688;-70
2022/05/26 15:24:05;;;;;;;2.67;0.70;;;;;;;;;;5024840;28;20223;-69
2022/05/26 15:26:30;;;;;;;2.78;1.10;;;;;;;;;;5018010;28;20219;-70
2022/05/26 15:28:56;;;;;;;1.48;0.80;;;;;;;;;;5022632;28;20228;-71
2022/05/26 15:31:22;;;;;;;5.40;1.13;;;;;;;;;;5042596;28;20302;-71
2022/05/26 15:33:49;;;;;;;2.65;1.00;;;;;;;;;;4986156;28;20686;-70
2022/05/26 15:36:21;;;;;;;2.00;0.90;;;;;;;;;;5029285;28;20211;-71
2022/05/26 15:38:49;;;;;;;3.20;1.08;;;;;;;;;;4988440;28;20258;-70
2022/05/26 15:41:21;;;;;;;3.65;0.85;;;;;;;;;;5011649;28;20244;-71
2022/05/26 15:43:47;;;;;;;2.70;1.30;;;;;;;;;;5001920;28;20311;-70
2022/05/26 15:46:26;;;;;;;2.40;1.20;;;;;;;;;;5020052;28;20267;-71
2022/05/26 15:48:51;;;;;;;1.92;1.10;;;;;;;;;;4969573;28;20303;-72
2022/05/26 15:51:17;;;;;;;2.65;1.10;;;;;;;;;;5032863;28;20716;-71
2022/05/26 15:53:43;;;;;;;2.42;1.05;;;;;;;;;;4996232;28;20315;-70
2022/05/26 15:56:11;;;;;;;2.67;1.20;;;;;;;;;;5008739;28;20238;-71
2022/05/26 15:58:40;;;;;;;3.05;1.08;;;;;;;;;;5003552;28;20239;-71
2022/05/26 16:01:08;;;;;;;4.22;1.40;;;;;;;;;;5032675;28;20224;-71